createdAt,value
2023-03-21T00:00:16.866Z,8.6
2023-03-21T00:02:45.130Z,8.6
2023-03-21T00:05:13.382Z,8.7
2023-03-21T00:07:41.638Z,8.8
2023-03-21T00:10:09.902Z,8.7
2023-03-21T00:12:38.159Z,8.7
2023-03-21T00:17:34.667Z,8.8
2023-03-21T00:18:49.401Z,8.7
2023-03-21T00:20:02.948Z,8.7
2023-03-21T00:22:31.207Z,8.7
2023-03-21T00:24:59.456Z,8.6
2023-03-21T00:27:27.713Z,8.6
2023-03-21T00:29:55.978Z,8.7
2023-03-21T00:32:24.227Z,8.6
2023-03-21T00:34:52.485Z,8.7
2023-03-21T00:37:20.745Z,8.6
2023-03-21T00:39:49.000Z,8.7
2023-03-21T00:42:17.255Z,8.7
2023-03-21T00:43:31.987Z,8.7
2023-03-21T00:47:14.025Z,8.7
2023-03-21T00:49:42.277Z,8.7
2023-03-21T00:52:10.538Z,8.7
2023-03-21T00:54:38.792Z,8.7
2023-03-21T00:57:07.056Z,8.7
2023-03-21T00:59:35.304Z,8.8
2023-03-21T01:02:03.566Z,8.7
2023-03-21T01:04:31.824Z,8.8
2023-03-21T01:07:00.083Z,8.7
2023-03-21T01:08:14.814Z,8.8
2023-03-21T01:09:28.354Z,8.8
2023-03-21T01:11:56.609Z,8.9
2023-03-21T01:14:24.866Z,8.7
2023-03-21T01:19:21.386Z,8.7
2023-03-21T01:21:49.642Z,8.7
2023-03-21T01:24:17.894Z,8.7
2023-03-21T01:26:46.151Z,8.6
2023-03-21T01:29:14.463Z,8.6
2023-03-21T01:31:42.672Z,8.7
2023-03-21T01:32:57.401Z,8.5
2023-03-21T01:34:10.948Z,8.6
2023-03-21T01:36:39.204Z,8.6
2023-03-21T01:39:07.460Z,8.7
2023-03-21T01:41:35.718Z,8.8
2023-03-21T01:44:03.973Z,8.9
2023-03-21T01:46:32.233Z,8.8
2023-03-21T01:51:28.751Z,8.9
2023-03-21T01:53:57.002Z,8.8
2023-03-21T01:56:25.260Z,8.6
2023-03-21T01:57:39.990Z,8.6
2023-03-21T01:58:53.537Z,8.7
2023-03-21T02:01:21.790Z,8.7
2023-03-21T02:03:50.054Z,8.8
2023-03-21T02:06:18.308Z,8.7
2023-03-21T02:08:46.565Z,8.8
2023-03-21T02:11:14.820Z,8.8
2023-03-21T02:13:43.084Z,8.9
2023-03-21T02:16:11.336Z,8.8
2023-03-21T02:18:39.594Z,8.7
2023-03-21T02:22:22.579Z,8.8
2023-03-21T02:23:36.128Z,8.8
2023-03-21T02:26:04.380Z,8.9
2023-03-21T02:28:32.639Z,8.9
2023-03-21T02:31:00.903Z,8.9
2023-03-21T02:33:29.153Z,9
2023-03-21T02:35:57.415Z,8.9
2023-03-21T02:38:25.671Z,9
2023-03-21T02:40:53.929Z,8.9
2023-03-21T02:43:22.180Z,9
2023-03-21T02:45:50.442Z,8.9
2023-03-21T02:47:05.176Z,9
2023-03-21T02:48:18.716Z,9
2023-03-21T02:53:15.229Z,9.1
2023-03-21T02:55:43.487Z,9
2023-03-21T02:58:11.742Z,9
2023-03-21T03:00:40.004Z,9
2023-03-21T03:03:08.264Z,9
2023-03-21T03:05:36.514Z,8.7
2023-03-21T03:08:04.778Z,8.8
2023-03-21T03:10:33.028Z,8.8
2023-03-21T03:11:47.761Z,8.8
2023-03-21T03:13:01.311Z,8.7
2023-03-21T03:15:29.562Z,8.8
2023-03-21T03:17:57.822Z,8.9
2023-03-21T03:20:26.079Z,9
2023-03-21T03:25:22.597Z,9
2023-03-21T03:27:50.851Z,9
2023-03-21T03:30:19.105Z,9.1
2023-03-21T03:32:47.364Z,8.9
2023-03-21T03:35:15.620Z,8.9
2023-03-21T03:36:30.352Z,8.9
2023-03-21T03:37:43.899Z,8.9
2023-03-21T03:40:12.152Z,8.9
2023-03-21T03:42:40.408Z,9
2023-03-21T03:45:08.666Z,8.9
2023-03-21T03:47:36.930Z,8.9
2023-03-21T03:50:05.186Z,8.9
2023-03-21T03:52:33.438Z,9
2023-03-21T03:57:29.958Z,8.9
2023-03-21T03:59:58.207Z,9
2023-03-21T04:01:12.941Z,8.8
2023-03-21T04:02:26.485Z,8.7
2023-03-21T04:04:54.748Z,8.8
2023-03-21T04:07:23.005Z,8.9
2023-03-21T04:09:51.259Z,8.9
2023-03-21T04:12:19.515Z,9
2023-03-21T04:14:47.767Z,9
2023-03-21T04:17:16.023Z,9
2023-03-21T04:19:44.285Z,8.9
2023-03-21T04:22:12.543Z,9
2023-03-21T04:24:40.797Z,9
2023-03-21T04:27:09.060Z,9
2023-03-21T04:29:37.309Z,8.9
2023-03-21T04:32:05.568Z,9
2023-03-21T04:34:33.830Z,8.9
2023-03-21T04:37:02.083Z,8.9
2023-03-21T04:39:30.337Z,8.8
2023-03-21T04:41:58.593Z,8.9
2023-03-21T04:44:26.855Z,8.9
2023-03-21T04:46:55.107Z,8.9
2023-03-21T04:49:23.369Z,8.9
2023-03-21T04:50:38.119Z,8.9
2023-03-21T04:51:51.659Z,9
2023-03-21T04:54:19.920Z,9
2023-03-21T04:59:16.428Z,9
2023-03-21T05:01:44.686Z,8.9
2023-03-21T05:04:12.947Z,9
2023-03-21T05:06:41.202Z,8.9
2023-03-21T05:09:09.457Z,8.8
2023-03-21T05:11:37.717Z,8.8
2023-03-21T05:14:05.978Z,9
2023-03-21T05:15:20.704Z,9
2023-03-21T05:16:34.254Z,9
2023-03-21T05:19:02.513Z,9.1
2023-03-21T05:21:30.765Z,9
2023-03-21T05:23:59.023Z,9
2023-03-21T05:26:27.275Z,9.1
2023-03-21T05:31:23.788Z,9.1
2023-03-21T05:33:52.047Z,9
2023-03-21T05:36:20.303Z,9.2
2023-03-21T05:38:48.566Z,9.2
2023-03-21T05:40:03.299Z,9.2
2023-03-21T05:41:16.841Z,9.2
2023-03-21T05:43:45.100Z,9.2
2023-03-21T05:46:13.359Z,9.2
2023-03-21T05:48:41.622Z,9.2
2023-03-21T05:51:09.872Z,9.2
2023-03-21T05:53:38.123Z,9.2
2023-03-21T05:56:06.380Z,9.2
2023-03-21T05:58:34.636Z,9.2
2023-03-21T06:03:31.148Z,9.2
2023-03-21T06:04:45.888Z,9.3
2023-03-21T06:05:59.431Z,9.2
2023-03-21T06:08:27.681Z,9.2
2023-03-21T06:10:55.946Z,9.2
2023-03-21T06:13:24.200Z,9.2
2023-03-21T06:15:52.460Z,9.1
2023-03-21T06:18:20.713Z,9.3
2023-03-21T06:20:48.969Z,9.3
2023-03-21T06:23:17.221Z,9.3
2023-03-21T06:25:45.487Z,9.4
2023-03-21T06:28:13.740Z,9.4
2023-03-21T06:29:28.468Z,9.3
2023-03-21T06:33:10.506Z,9.4
2023-03-21T06:35:38.756Z,9.5
2023-03-21T06:38:07.016Z,9.4
2023-03-21T06:40:35.276Z,9.4
2023-03-21T06:43:03.535Z,9.3
2023-03-21T06:45:31.789Z,9.3
2023-03-21T06:48:00.041Z,9.4
2023-03-21T06:50:28.299Z,9.3
2023-03-21T06:52:56.561Z,9.3
2023-03-21T06:54:11.287Z,9.1
2023-03-21T06:55:24.830Z,9.2
2023-03-21T06:57:53.092Z,9.1
2023-03-21T07:00:21.344Z,9.2
2023-03-21T07:05:17.856Z,9.3
2023-03-21T07:07:46.127Z,9.4
2023-03-21T07:10:14.378Z,9.5
2023-03-21T07:12:42.634Z,9.5
2023-03-21T07:15:10.889Z,9.6
2023-03-21T07:17:39.143Z,9.5
2023-03-21T07:18:53.881Z,9.5
2023-03-21T07:20:07.421Z,9.5
2023-03-21T07:22:35.677Z,9.5
2023-03-21T07:25:03.930Z,9.4
2023-03-21T07:27:32.190Z,9.4
2023-03-21T07:32:28.700Z,9.5
2023-03-21T07:37:25.215Z,9.6
2023-03-21T07:39:53.477Z,9.4
2023-03-21T07:42:21.735Z,9.5
2023-03-21T07:43:36.468Z,9.5
2023-03-21T07:44:50.004Z,9.4
2023-03-21T07:47:18.263Z,9.5
2023-03-21T07:49:46.517Z,9.6
2023-03-21T07:52:14.779Z,9.6
2023-03-21T07:54:43.033Z,9.6
2023-03-21T07:57:11.287Z,9.5
2023-03-21T07:59:39.545Z,9.5
2023-03-21T08:02:07.809Z,9.5
2023-03-21T08:04:36.060Z,9.5
2023-03-21T08:08:19.054Z,9.5
2023-03-21T08:09:32.598Z,9.4
2023-03-21T08:12:00.850Z,9.5
2023-03-21T08:14:29.107Z,9.6
2023-03-21T08:16:57.367Z,9.6
2023-03-21T08:19:25.620Z,9.5
2023-03-21T08:21:53.876Z,9.6
2023-03-21T08:24:22.135Z,9.6
2023-03-21T08:26:50.393Z,9.5
2023-03-21T08:29:18.647Z,9.6
2023-03-21T08:31:46.906Z,9.6
2023-03-21T08:33:01.632Z,9.7
2023-03-21T08:34:15.184Z,9.7
2023-03-21T08:39:11.688Z,9.7
2023-03-21T08:41:39.949Z,9.7
2023-03-21T08:44:08.207Z,9.6
2023-03-21T08:46:36.464Z,9.8
2023-03-21T08:49:04.720Z,9.9
2023-03-21T08:51:32.972Z,9.8
2023-03-21T08:54:01.230Z,9.8
2023-03-21T08:56:29.489Z,9.8
2023-03-21T08:57:44.223Z,9.8
2023-03-21T08:58:57.768Z,9.8
2023-03-21T09:01:26.026Z,9.8
2023-03-21T09:03:54.280Z,9.9
2023-03-21T09:06:22.534Z,10
2023-03-21T09:11:19.051Z,10
2023-03-21T09:13:47.309Z,10.1
2023-03-21T09:16:15.557Z,10.2
2023-03-21T09:18:43.822Z,10.2
2023-03-21T09:21:12.075Z,10.2
2023-03-21T09:22:26.804Z,10.1
2023-03-21T09:23:40.354Z,10
2023-03-21T09:26:08.607Z,10
2023-03-21T09:28:36.861Z,10
2023-03-21T09:31:05.122Z,10
2023-03-21T09:33:33.376Z,10
2023-03-21T09:36:01.632Z,10.1
2023-03-21T09:38:29.895Z,10.2
2023-03-21T09:43:26.402Z,10.1
2023-03-21T09:45:54.665Z,9.9
2023-03-21T09:47:09.398Z,10
2023-03-21T09:48:22.941Z,10
2023-03-21T09:50:51.199Z,10
2023-03-21T09:53:19.454Z,10.1
2023-03-21T09:55:47.703Z,10.2
2023-03-21T09:58:15.962Z,10.2
2023-03-21T10:00:44.222Z,10.1
2023-03-21T10:03:12.480Z,10
2023-03-21T10:05:40.733Z,10
2023-03-21T10:08:08.987Z,10
2023-03-21T10:10:37.248Z,10.1
2023-03-21T10:13:05.504Z,10.2
2023-03-21T10:15:33.766Z,10.2
2023-03-21T10:18:02.024Z,10.2
2023-03-21T10:20:30.271Z,10.3
2023-03-21T10:22:58.533Z,10.4
2023-03-21T10:25:26.791Z,10.4
2023-03-21T10:27:55.050Z,10.6
2023-03-21T10:30:23.302Z,10.7
2023-03-21T10:32:51.559Z,10.7
2023-03-21T10:35:19.821Z,10.7
2023-03-21T10:36:34.566Z,10.6
2023-03-21T10:37:48.106Z,10.5
2023-03-21T10:40:16.367Z,10.5
2023-03-21T10:47:41.138Z,10.6
2023-03-21T10:50:09.390Z,10.6
2023-03-21T10:52:37.655Z,10.7
2023-03-21T10:55:05.905Z,10.8
2023-03-21T10:57:34.165Z,10.8
2023-03-21T11:00:02.422Z,10.9
2023-03-21T11:01:17.151Z,10.6
2023-03-21T11:02:30.701Z,10.6
2023-03-21T11:04:58.958Z,10.6
2023-03-21T11:07:27.214Z,10.5
2023-03-21T11:09:55.474Z,10.5
2023-03-21T11:12:23.726Z,10.5
2023-03-21T11:17:20.239Z,10.7
2023-03-21T11:19:48.494Z,10.8
2023-03-21T11:22:16.751Z,10.8
2023-03-21T11:24:45.014Z,10.8
2023-03-21T11:25:59.747Z,10.9
2023-03-21T11:27:13.291Z,10.9
2023-03-21T11:29:41.547Z,11
2023-03-21T11:32:09.803Z,10.9
2023-03-21T11:34:38.055Z,10.7
2023-03-21T11:37:06.311Z,10.9
2023-03-21T11:39:34.572Z,10.9
2023-03-21T11:42:02.828Z,10.9
2023-03-21T11:44:31.086Z,11
2023-03-21T11:49:27.602Z,10.8
2023-03-21T11:50:42.334Z,10.8
2023-03-21T11:51:55.878Z,10.8
2023-03-21T11:54:24.137Z,10.8
2023-03-21T11:56:52.395Z,10.9
2023-03-21T11:59:20.652Z,10.9
2023-03-21T12:01:48.905Z,11.1
2023-03-21T12:04:17.160Z,11.1
2023-03-21T12:06:45.421Z,11
2023-03-21T12:09:13.682Z,11
2023-03-21T12:11:41.939Z,11.1
2023-03-21T12:14:10.192Z,11.1
2023-03-21T12:15:24.928Z,11
2023-03-21T12:19:06.954Z,11.1
2023-03-21T12:21:35.210Z,11.1
2023-03-21T12:24:03.468Z,11
2023-03-21T12:26:31.732Z,10.9
2023-03-21T12:28:59.984Z,11
2023-03-21T12:31:28.238Z,11
2023-03-21T12:33:56.498Z,11
2023-03-21T12:36:24.756Z,11.1
2023-03-21T12:38:53.017Z,11.1
2023-03-21T12:40:07.747Z,11.1
2023-03-21T12:41:21.294Z,11.3
2023-03-21T12:43:49.550Z,11.2
2023-03-21T12:46:17.805Z,11.2
2023-03-21T12:51:14.314Z,11.1
2023-03-21T12:53:42.576Z,11
2023-03-21T12:56:10.836Z,11.1
2023-03-21T12:58:39.084Z,11.1
2023-03-21T13:01:07.344Z,11
2023-03-21T13:03:35.607Z,11
2023-03-21T13:04:50.339Z,10.9
2023-03-21T13:06:03.876Z,11.1
2023-03-21T13:08:32.141Z,11.1
2023-03-21T13:11:00.389Z,11
2023-03-21T13:13:28.651Z,10.9
2023-03-21T13:15:56.904Z,10.9
2023-03-21T13:18:25.163Z,10.9
2023-03-21T13:23:21.679Z,10.9
2023-03-21T13:25:49.939Z,11
2023-03-21T13:28:18.196Z,11
2023-03-21T13:29:32.927Z,11
2023-03-21T13:30:46.466Z,11
2023-03-21T13:33:14.724Z,11
2023-03-21T13:35:42.985Z,11.1
2023-03-21T13:38:11.237Z,11.1
2023-03-21T13:40:39.499Z,11.1
2023-03-21T13:43:07.751Z,10.9
2023-03-21T13:45:36.012Z,10.9
2023-03-21T13:48:04.266Z,11
2023-03-21T13:50:32.523Z,11.1
2023-03-21T13:54:15.512Z,11
2023-03-21T13:55:29.060Z,11.2
2023-03-21T13:57:57.314Z,11.1
2023-03-21T14:00:25.577Z,11
2023-03-21T14:02:53.829Z,10.8
2023-03-21T14:05:22.084Z,10.8
2023-03-21T14:07:50.346Z,10.7
2023-03-21T14:10:18.600Z,10.8
2023-03-21T14:12:46.862Z,10.8
2023-03-21T14:15:15.116Z,10.8
2023-03-21T14:17:43.375Z,10.9
2023-03-21T14:18:58.104Z,11
2023-03-21T14:20:11.648Z,11
2023-03-21T14:25:08.168Z,11
2023-03-21T14:27:36.423Z,11
2023-03-21T14:30:04.678Z,11
2023-03-21T14:32:32.938Z,11.1
2023-03-21T14:35:01.191Z,11
2023-03-21T14:37:29.454Z,11
2023-03-21T14:39:57.707Z,10.9
2023-03-21T14:42:25.963Z,11
2023-03-21T14:43:40.697Z,11
2023-03-21T14:44:54.237Z,10.9
2023-03-21T14:47:22.499Z,10.9
2023-03-21T14:49:50.753Z,11
2023-03-21T14:52:19.017Z,11
2023-03-21T14:57:15.531Z,11.2
2023-03-21T14:59:43.780Z,11
2023-03-21T15:02:12.043Z,11.1
2023-03-21T15:04:40.298Z,11.1
2023-03-21T15:07:08.555Z,11.1
2023-03-21T15:08:23.286Z,11.2
2023-03-21T15:09:36.834Z,11.1
2023-03-21T15:12:05.092Z,11
2023-03-21T15:14:33.350Z,11
2023-03-21T15:17:01.599Z,11
2023-03-21T15:19:29.860Z,11.1
2023-03-21T15:21:58.120Z,11.2
2023-03-21T15:24:26.370Z,11.2
2023-03-21T15:29:22.888Z,11.1
2023-03-21T15:31:51.143Z,10.9
2023-03-21T15:33:05.873Z,11
2023-03-21T15:34:19.423Z,11
2023-03-21T15:36:47.680Z,11.1
2023-03-21T15:39:15.938Z,10.9
2023-03-21T15:41:44.194Z,10.9
2023-03-21T15:44:12.453Z,10.9
2023-03-21T15:46:40.706Z,11.1
2023-03-21T15:49:08.966Z,11.2
2023-03-21T15:51:37.220Z,11.1
2023-03-21T15:54:05.479Z,10.9
2023-03-21T15:56:33.730Z,10.9
2023-03-21T15:59:01.997Z,10.9
2023-03-21T16:01:30.246Z,10.9
2023-03-21T16:03:58.509Z,10.9
2023-03-21T16:06:26.763Z,11
2023-03-21T16:08:55.018Z,11
2023-03-21T16:11:23.281Z,11.1
2023-03-21T16:13:51.533Z,11
2023-03-21T16:16:19.793Z,11.1
2023-03-21T16:18:48.050Z,11
2023-03-21T16:21:16.305Z,11
2023-03-21T16:22:31.053Z,11
2023-03-21T16:23:44.600Z,11
2023-03-21T16:26:12.854Z,11
2023-03-21T16:31:09.371Z,11
2023-03-21T16:33:37.629Z,10.9
2023-03-21T16:36:05.881Z,10.9
2023-03-21T16:38:34.145Z,11
2023-03-21T16:41:02.400Z,10.9
2023-03-21T16:43:30.653Z,10.8
2023-03-21T16:45:58.909Z,10.8
2023-03-21T16:47:13.644Z,10.8
2023-03-21T16:48:27.184Z,10.9
2023-03-21T16:50:55.441Z,10.7
2023-03-21T16:53:23.704Z,10.6
2023-03-21T16:55:51.957Z,10.8
2023-03-21T16:58:20.215Z,10.8
2023-03-21T17:03:16.737Z,10.7
2023-03-21T17:05:44.987Z,10.8
2023-03-21T17:08:13.250Z,10.9
2023-03-21T17:10:41.502Z,10.9
2023-03-21T17:11:56.240Z,10.9
2023-03-21T17:13:09.777Z,10.7
2023-03-21T17:15:38.036Z,10.7
2023-03-21T17:18:06.291Z,10.6
2023-03-21T17:20:34.551Z,10.6
2023-03-21T17:23:02.809Z,10.6
2023-03-21T17:25:31.062Z,10.7
2023-03-21T17:27:59.323Z,10.6
2023-03-21T17:30:27.581Z,10.7
2023-03-21T17:35:24.086Z,10.7
2023-03-21T17:36:38.823Z,10.6
2023-03-21T17:37:52.365Z,10.6
2023-03-21T17:40:20.619Z,10.7
2023-03-21T17:42:48.882Z,10.6
2023-03-21T17:45:17.134Z,10.6
2023-03-21T17:47:45.393Z,10.5
2023-03-21T17:50:13.650Z,10.5
2023-03-21T17:52:41.906Z,10.4
2023-03-21T17:55:10.170Z,10.6
2023-03-21T17:57:38.425Z,10.6
2023-03-21T18:00:06.682Z,10.4
2023-03-21T18:01:21.411Z,10.4
2023-03-21T18:05:03.445Z,10.5
2023-03-21T18:07:31.705Z,10.4
2023-03-21T18:09:59.962Z,10.4
2023-03-21T18:12:28.211Z,10.4
2023-03-21T18:14:56.467Z,10.4
2023-03-21T18:17:24.732Z,10.3
2023-03-21T18:19:52.988Z,10.2
2023-03-21T18:22:21.242Z,10.2
2023-03-21T18:24:49.495Z,10.2
2023-03-21T18:26:04.233Z,10.3
2023-03-21T18:27:17.778Z,10.2
2023-03-21T18:29:46.027Z,10.1
2023-03-21T18:32:14.283Z,10.2
2023-03-21T18:37:10.805Z,10.2
2023-03-21T18:39:39.054Z,10.1
2023-03-21T18:42:07.312Z,10.3
2023-03-21T18:44:35.570Z,10.2
2023-03-21T18:47:03.830Z,10.2
2023-03-21T18:49:32.088Z,10.2
2023-03-21T18:50:46.817Z,10.3
2023-03-21T18:52:00.356Z,10.3
2023-03-21T18:54:28.617Z,10.2
2023-03-21T18:56:56.874Z,10.2
2023-03-21T18:59:25.130Z,10.2
2023-03-21T19:01:53.388Z,10.2
2023-03-21T19:04:21.645Z,10.2
2023-03-21T19:09:18.161Z,10.2
2023-03-21T19:11:46.417Z,10.2
2023-03-21T19:14:14.675Z,10.3
2023-03-21T19:15:29.407Z,10.2
2023-03-21T19:16:42.947Z,10.2
2023-03-21T19:19:11.203Z,10.2
2023-03-21T19:21:39.465Z,10.3
2023-03-21T19:24:07.718Z,10.2
2023-03-21T19:26:35.974Z,10.2
2023-03-21T19:29:04.229Z,10.2
2023-03-21T19:31:32.511Z,10.2
2023-03-21T19:34:00.744Z,10.2
2023-03-21T19:36:28.998Z,10.2
2023-03-21T19:40:11.995Z,10.2
2023-03-21T19:41:25.531Z,10.3
2023-03-21T19:43:53.795Z,10.3
2023-03-21T19:46:22.049Z,10.4
2023-03-21T19:48:50.309Z,10.3
2023-03-21T19:51:18.561Z,10.3
2023-03-21T19:53:46.815Z,10.3
2023-03-21T19:56:15.073Z,10.3
2023-03-21T19:58:43.326Z,10.4
2023-03-21T20:01:11.591Z,10.4
2023-03-21T20:03:39.848Z,10.4
2023-03-21T20:04:54.581Z,10.3
2023-03-21T20:06:08.120Z,10.3
2023-03-21T20:11:04.636Z,10.3
2023-03-21T20:13:32.890Z,10.3
2023-03-21T20:16:01.148Z,10.3
2023-03-21T20:18:29.408Z,10.3
2023-03-21T20:20:57.662Z,10.3
2023-03-21T20:23:25.914Z,10.3
2023-03-21T20:25:54.178Z,10.3
2023-03-21T20:28:22.434Z,10.3
2023-03-21T20:29:37.160Z,10.4
2023-03-21T20:30:50.704Z,10.4
2023-03-21T20:33:18.966Z,10.5
2023-03-21T20:35:47.224Z,10.5
2023-03-21T20:38:15.479Z,10.5
2023-03-21T20:43:11.990Z,10.5
2023-03-21T20:45:40.245Z,10.5
2023-03-21T20:48:08.504Z,10.6
2023-03-21T20:50:36.763Z,10.4
2023-03-21T20:53:05.019Z,10.4
2023-03-21T20:54:19.749Z,10.4
2023-03-21T20:55:33.293Z,10.5
2023-03-21T20:58:01.546Z,10.5
2023-03-21T21:00:29.807Z,10.5
2023-03-21T21:02:58.058Z,10.6
2023-03-21T21:05:26.316Z,10.6
2023-03-21T21:07:54.577Z,10.5
2023-03-21T21:10:22.835Z,10.6
2023-03-21T21:15:19.342Z,10.5
2023-03-21T21:17:47.603Z,10.6
2023-03-21T21:19:02.334Z,10.4
2023-03-21T21:20:15.874Z,10.4
2023-03-21T21:22:44.133Z,10.4
2023-03-21T21:25:12.387Z,10.4
2023-03-21T21:27:40.643Z,10.5
2023-03-21T21:30:08.905Z,10.6
2023-03-21T21:32:37.158Z,10.6
2023-03-21T21:35:05.417Z,10.4
2023-03-21T21:37:33.675Z,10.5
2023-03-21T21:40:01.933Z,10.6
2023-03-21T21:42:30.185Z,10.6
2023-03-21T21:44:58.441Z,10.6
2023-03-21T21:47:26.698Z,10.6
2023-03-21T21:49:54.962Z,10.6
2023-03-21T21:52:23.213Z,10.6
2023-03-21T21:54:51.477Z,10.5
2023-03-21T21:57:19.726Z,10.5
2023-03-21T21:59:47.985Z,10.4
2023-03-21T22:02:16.243Z,10.5
2023-03-21T22:04:44.494Z,10.5
2023-03-21T22:07:12.758Z,10.5
2023-03-21T22:08:27.515Z,10.5
2023-03-21T22:09:41.046Z,10.6
2023-03-21T22:12:09.308Z,10.5
2023-03-21T22:17:05.818Z,10.7
2023-03-21T22:19:34.083Z,10.7
2023-03-21T22:22:02.330Z,10.7
2023-03-21T22:24:30.588Z,10.6
2023-03-21T22:26:58.850Z,10.6
2023-03-21T22:29:27.105Z,10.7
2023-03-21T22:31:55.361Z,10.5
2023-03-21T22:33:10.093Z,10.6
2023-03-21T22:34:23.636Z,10.6
2023-03-21T22:36:51.898Z,10.6
2023-03-21T22:39:20.155Z,10.5
2023-03-21T22:41:48.412Z,10.4
2023-03-21T22:44:16.671Z,10.4
2023-03-21T22:49:13.181Z,10.4
2023-03-21T22:51:41.431Z,10.5
2023-03-21T22:54:09.695Z,10.4
2023-03-21T22:56:37.953Z,10.5
2023-03-21T22:57:52.680Z,10.5
2023-03-21T22:59:06.226Z,10.6
2023-03-21T23:01:34.482Z,10.5
2023-03-21T23:04:02.736Z,10.4
2023-03-21T23:06:30.996Z,10.4
2023-03-21T23:08:59.256Z,10.4
2023-03-21T23:11:27.511Z,10.3
2023-03-21T23:13:55.764Z,10.2
2023-03-21T23:16:24.023Z,10.2
2023-03-21T23:21:20.538Z,10.2
2023-03-21T23:22:35.270Z,10
2023-03-21T23:23:48.815Z,10
2023-03-21T23:26:17.065Z,10
2023-03-21T23:28:45.327Z,10.1
2023-03-21T23:31:13.581Z,9.9
2023-03-21T23:33:41.839Z,10
2023-03-21T23:36:10.094Z,10
2023-03-21T23:38:38.350Z,9.9
2023-03-21T23:41:06.606Z,9.8
2023-03-21T23:43:34.862Z,9.8
2023-03-21T23:46:03.116Z,9.8
2023-03-21T23:47:17.852Z,9.7
2023-03-21T23:50:59.886Z,9.7
2023-03-21T23:53:28.140Z,9.6
2023-03-21T23:55:56.401Z,9.6
2023-03-21T23:58:24.658Z,9.7
